Time;durP1;ratioP1;P1;durP2;ratioP2;P2;SDS_P1;SDS_P2;PMS_P1;PMS_P2;Temp;Humidity;BMP_temperature;BMP_pressure;BME280_temperature;BME280_humidity;BME280_pressure;Samples;Min_cycle;Max_cycle;Signal;HPM_P1;HPM_P2
2022/11/26 10:23:20;;;;;;;6.77;4.77;;;;;;;16.97;78.83;100292.16;6290772;22;40469;-87
2022/11/26 10:44:56;;;;;;;11.27;6.17;;;;;;;11.79;80.24;100320.69;6322819;22;43534;-83
2022/11/26 10:47:33;;;;;;;7.90;6.40;;;;;;;11.48;80.57;100304.34;6322321;22;42619;-84
2022/11/26 10:56:20;;;;;;;8.40;6.47;;;;;;;11.56;81.89;100323.44;6322024;22;43045;-84
2022/11/26 10:58:53;;;;;;;13.07;6.20;;;;;;;11.95;79.40;100326.19;6323058;22;41430;-84
2022/11/26 11:01:22;;;;;;;7.13;6.43;;;;;;;12.48;78.87;100304.28;6323436;22;39395;-84
2022/11/26 11:17:40;;;;;;;8.33;5.43;;;;;;;18.19;61.01;100370.44;6412661;22;42339;-84
2022/11/26 11:24:49;;;;;;;7.43;6.00;;;;;;;16.38;59.34;100348.50;6343074;22;42601;-84
2022/11/26 11:27:24;;;;;;;9.27;6.20;;;;;;;15.82;61.38;100360.03;6350941;22;39197;-82
2022/11/26 11:29:52;;;;;;;9.00;6.47;;;;;;;15.22;63.26;100327.94;6352132;22;41725;-81
2022/11/26 11:32:35;;;;;;;8.70;7.17;;;;;;;14.88;63.47;100352.16;6352256;22;41702;-81
2022/11/26 11:35:22;;;;;;;6.93;6.17;;;;;;;14.55;63.83;100346.91;6352416;22;41338;-81
2022/11/26 11:37:52;;;;;;;8.53;6.57;;;;;;;14.40;64.99;100348.59;6379316;22;40048;-81
2022/11/26 11:40:26;;;;;;;7.17;5.70;;;;;;;14.34;65.52;100343.59;6352255;22;41838;-81
2022/11/26 11:42:57;;;;;;;8.60;5.83;;;;;;;14.14;65.65;100343.78;6378103;22;41646;-81
2022/11/26 11:45:33;;;;;;;8.97;5.87;;;;;;;14.00;66.54;100340.03;6379097;22;42813;-80
2022/11/26 11:48:10;;;;;;;5.90;5.30;;;;;;;13.89;66.60;100331.75;6378878;22;40784;-81
2022/11/26 11:50:44;;;;;;;8.63;5.80;;;;;;;14.08;66.18;100349.44;6378979;22;43166;-81
2022/11/26 11:53:33;;;;;;;8.40;6.33;;;;;;;13.73;66.45;100314.84;6352210;22;43134;-81
2022/11/26 11:56:12;;;;;;;10.17;6.73;;;;;;;13.64;67.05;100352.63;6378933;22;42757;-81
2022/11/26 11:59:00;;;;;;;11.17;6.60;;;;;;;13.35;67.45;100350.59;6406834;22;40708;-81
2022/11/26 12:01:43;;;;;;;8.37;5.70;;;;;;;13.01;67.82;100325.59;6378801;22;42500;-80
2022/11/26 12:04:25;;;;;;;7.90;6.30;;;;;;;12.89;67.96;100350.13;6352202;22;44923;-81
2022/11/26 12:07:25;;;;;;;6.70;5.77;;;;;;;12.59;69.09;100326.75;6378976;22;43201;-81
2022/11/26 12:10:02;;;;;;;8.80;6.80;;;;;;;12.48;69.44;100341.47;6406143;22;40126;-80
2022/11/26 12:12:34;;;;;;;9.60;6.97;;;;;;;12.15;69.69;100318.16;6351947;22;41081;-80
2022/11/26 12:15:08;;;;;;;9.90;6.60;;;;;;;12.06;70.60;100315.06;6406415;22;43710;-80
2022/11/26 12:17:40;;;;;;;9.00;7.17;;;;;;;12.00;70.98;100312.69;6406358;22;42183;-82
2022/11/26 12:20:19;;;;;;;8.87;7.57;;;;;;;12.05;71.41;100310.69;6378584;22;41652;-81
2022/11/26 12:22:56;;;;;;;10.30;7.03;;;;;;;12.17;71.29;100313.66;6351634;22;41968;-81
2022/11/26 12:25:30;;;;;;;10.80;7.47;;;;;;;12.18;71.28;100306.56;6351635;22;43574;-83
2022/11/26 12:28:03;;;;;;;10.00;7.13;;;;;;;12.32;70.69;100309.44;6350998;22;42703;-82
2022/11/26 12:30:43;;;;;;;10.43;7.20;;;;;;;12.41;70.32;100322.28;6382898;22;40209;-80
2022/11/26 12:33:17;;;;;;;9.87;7.50;;;;;;;12.23;70.50;100305.41;6363682;22;42583;-80
2022/11/26 12:35:51;;;;;;;9.50;7.43;;;;;;;12.21;70.52;100309.06;6392272;22;42548;-82
2022/11/26 12:38:25;;;;;;;8.53;6.97;;;;;;;12.30;70.85;100324.56;6365048;22;41180;-81
2022/11/26 12:40:59;;;;;;;10.63;8.37;;;;;;;12.50;70.95;100313.88;6365038;22;39282;-82
2022/11/26 12:43:36;;;;;;;10.90;7.90;;;;;;;12.42;70.54;100289.47;6352001;22;43324;-83
2022/11/26 12:46:08;;;;;;;10.97;7.03;;;;;;;12.64;70.57;100321.19;6352105;22;42995;-80
2022/11/26 12:48:42;;;;;;;10.63;8.30;;;;;;;12.56;70.49;100308.28;6351912;22;42188;-83
2022/11/26 12:51:26;;;;;;;9.13;7.60;;;;;;;12.70;70.30;100331.56;6378696;22;40672;-81
2022/11/26 12:54:06;;;;;;;9.20;7.17;;;;;;;12.51;70.22;100310.28;6377937;22;42667;-80
2022/11/26 12:56:40;;;;;;;8.53;6.97;;;;;;;12.60;70.20;100330.28;6406667;22;44189;-82
2022/11/26 12:59:18;;;;;;;10.53;7.07;;;;;;;12.48;70.54;100314.91;6351450;22;41226;-81
2022/11/26 13:01:46;;;;;;;11.03;7.80;;;;;;;12.39;70.61;100316.16;6378694;22;40198;-85
2022/11/26 13:04:13;;;;;;;6.63;5.93;;;;;;;12.32;71.26;100313.88;6378014;22;43752;-85
2022/11/26 13:06:56;;;;;;;12.93;7.80;;;;;;;12.26;71.19;100308.84;6352051;22;43425;-84
2022/11/26 13:09:38;;;;;;;12.37;7.80;;;;;;;11.96;71.12;100277.47;6350394;22;41774;-83
2022/11/26 13:12:12;;;;;;;10.37;7.40;;;;;;;11.95;71.18;100301.44;6352194;22;39565;-84
2022/11/26 13:14:45;;;;;;;8.73;7.23;;;;;;;11.84;71.56;100309.88;6378236;22;41903;-81
2022/11/26 13:17:15;;;;;;;12.50;8.43;;;;;;;11.71;72.27;100290.09;6378372;22;41761;-81
2022/11/26 13:19:51;;;;;;;17.80;12.10;;;;;;;11.76;72.16;100301.38;6406212;22;42242;-82
2022/11/26 13:22:54;;;;;;;18.13;11.57;;;;;;;11.80;72.61;100309.13;6377815;22;39162;-80
2022/11/26 13:25:37;;;;;;;17.20;12.10;;;;;;;11.66;72.54;100303.53;6378086;22;42600;-84
2022/11/26 13:28:20;;;;;;;23.33;16.17;;;;;;;11.64;72.30;100310.69;6351287;22;41882;-83
2022/11/26 13:31:02;;;;;;;29.40;18.50;;;;;;;11.58;72.69;100296.84;6378331;22;41554;-83
2022/11/26 13:34:04;;;;;;;16.93;10.90;;;;;;;11.51;73.00;100293.59;6378474;22;40631;-83
2022/11/26 13:36:56;;;;;;;13.10;8.37;;;;;;;11.41;73.14;100282.50;6378185;22;42549;-82
2022/11/26 13:39:53;;;;;;;11.53;8.43;;;;;;;11.33;73.39;100291.75;6377656;22;41807;-82
2022/11/26 13:42:55;;;;;;;14.13;8.67;;;;;;;11.31;73.68;100298.91;6377866;22;42148;-81
2022/11/26 13:45:55;;;;;;;44.83;23.13;;;;;;;11.30;74.20;100306.00;6378472;22;40189;-81
2022/11/26 13:48:30;;;;;;;39.23;20.00;;;;;;;11.22;74.05;100301.94;6400086;22;41691;-82
2022/11/26 13:51:02;;;;;;;42.80;24.37;;;;;;;11.31;74.39;100304.19;6351467;22;41691;-81
2022/11/26 13:53:35;;;;;;;30.27;17.63;;;;;;;11.37;74.36;100302.16;6377831;22;42959;-82
2022/11/26 13:56:05;;;;;;;20.37;11.83;;;;;;;11.47;74.32;100302.63;6378335;22;39962;-83
2022/11/26 13:58:42;;;;;;;13.90;8.90;;;;;;;11.43;73.97;100293.06;6351367;22;40713;-80
2022/11/26 14:01:35;;;;;;;11.80;8.63;;;;;;;11.55;73.87;100312.91;6375100;22;42739;-82
2022/11/26 14:04:06;;;;;;;12.03;7.27;;;;;;;11.53;74.04;100307.66;6350010;22;42538;-82
2022/11/26 14:06:35;;;;;;;12.10;6.27;;;;;;;11.51;73.92;100314.81;6350572;22;38974;-82
2022/11/26 14:09:04;;;;;;;12.10;7.63;;;;;;;11.43;74.16;100315.16;6373902;22;42475;-81
2022/11/26 14:11:55;;;;;;;10.87;7.70;;;;;;;11.33;74.35;100299.69;6349611;22;41867;-82
2022/11/26 14:14:33;;;;;;;11.60;7.60;;;;;;;11.32;74.27;100313.88;6350628;22;41181;-81
2022/11/26 14:17:18;;;;;;;9.47;6.87;;;;;;;11.29;74.56;100316.66;6375418;22;40083;-80
2022/11/26 14:20:13;;;;;;;9.60;7.33;;;;;;;11.22;74.43;100315.19;6350271;22;43275;-82
2022/11/26 14:22:41;;;;;;;13.03;8.37;;;;;;;11.18;74.55;100316.25;6295212;22;43879;-80
2022/11/26 14:25:13;;;;;;;11.20;7.77;;;;;;;11.14;74.75;100316.38;6376380;22;43775;-85
2022/11/26 14:27:51;;;;;;;7.37;6.07;;;;;;;11.16;75.00;100313.66;6350325;22;39316;-83
2022/11/26 14:30:26;;;;;;;8.90;7.07;;;;;;;11.13;75.18;100319.94;6404216;22;41778;-82
2022/11/26 14:33:13;;;;;;;10.53;6.83;;;;;;;11.03;75.32;100300.03;6349856;22;43799;-81
2022/11/26 14:35:52;;;;;;;12.33;6.63;;;;;;;10.93;75.47;100298.69;6376475;22;41960;-81
2022/11/26 14:38:24;;;;;;;13.47;7.67;;;;;;;10.90;75.70;100301.47;6404733;22;40961;-82
2022/11/26 14:40:59;;;;;;;9.53;7.47;;;;;;;10.87;75.77;100306.91;6350168;22;41348;-81
2022/11/26 14:43:27;;;;;;;10.47;7.43;;;;;;;10.92;76.05;100318.19;6350705;22;41632;-80
2022/11/26 14:46:05;;;;;;;11.53;7.20;;;;;;;10.80;75.96;100302.78;6349477;22;41080;-83
2022/11/26 14:48:40;;;;;;;9.70;5.87;;;;;;;10.90;75.97;100327.97;6350522;22;40363;-83
2022/11/26 14:51:08;;;;;;;9.57;7.23;;;;;;;10.83;76.18;100320.34;6376428;22;41150;-80
2022/11/26 14:53:40;;;;;;;7.57;5.40;;;;;;;10.74;76.18;100316.28;6376063;22;43827;-84
2022/11/26 14:56:10;;;;;;;9.10;6.37;;;;;;;10.84;75.95;100338.84;6377553;22;42875;-80
2022/11/26 14:58:42;;;;;;;10.97;5.60;;;;;;;10.78;76.23;100342.59;6378537;22;40227;-82
2022/11/26 15:01:20;;;;;;;11.33;6.13;;;;;;;10.77;76.46;100340.84;6377500;22;42526;-83
2022/11/26 15:03:57;;;;;;;7.77;5.57;;;;;;;10.73;76.50;100338.41;6378364;22;42752;-81
2022/11/26 15:06:27;;;;;;;10.10;5.47;;;;;;;10.66;76.35;100334.25;6351025;22;41416;-82
2022/11/26 15:09:06;;;;;;;7.87;5.07;;;;;;;10.53;76.81;100319.75;6351410;22;38829;-81
2022/11/26 15:11:37;;;;;;;8.00;5.73;;;;;;;10.49;77.04;100326.13;6350628;22;42654;-83
2022/11/26 15:14:05;;;;;;;9.27;6.27;;;;;;;10.39;77.09;100323.81;6406573;22;43157;-82
2022/11/26 15:16:40;;;;;;;9.07;5.93;;;;;;;10.44;77.36;100335.09;6376832;22;40717;-81
2022/11/26 15:19:20;;;;;;;8.43;6.30;;;;;;;10.19;77.58;100302.53;6349842;22;39013;-83
2022/11/26 15:21:58;;;;;;;12.00;6.43;;;;;;;10.09;77.62;100295.81;6351110;22;42395;-83
2022/11/26 15:24:27;;;;;;;9.87;5.97;;;;;;;10.14;77.96;100320.31;6375494;22;42912;-80
2022/11/26 15:26:55;;;;;;;8.53;5.70;;;;;;;10.15;78.15;100332.63;6405562;22;42390;-83
2022/11/26 15:29:29;;;;;;;10.27;5.67;;;;;;;10.08;78.27;100334.66;6377698;22;38950;-82
2022/11/26 15:31:59;;;;;;;10.93;5.83;;;;;;;9.85;78.28;100309.97;6351775;22;40970;-82
2022/11/26 15:34:29;;;;;;;8.90;5.50;;;;;;;9.82;78.96;100325.94;6377323;22;43111;-80
2022/11/26 15:36:56;;;;;;;12.07;7.27;;;;;;;9.75;79.21;100327.09;6350450;22;41741;-79
2022/11/26 15:39:27;;;;;;;9.97;6.77;;;;;;;9.67;79.02;100317.63;6377670;22;40064;-82
2022/11/26 15:41:59;;;;;;;12.00;6.20;;;;;;;9.53;79.17;100306.66;6378013;22;40557;-82
2022/11/26 15:44:29;;;;;;;9.67;5.80;;;;;;;9.46;79.56;100304.31;6377411;22;42877;-81
2022/11/26 15:46:59;;;;;;;7.47;5.80;;;;;;;9.53;79.43;100322.53;6404958;22;43110;-83
2022/11/26 15:49:31;;;;;;;9.27;6.50;;;;;;;9.50;79.55;100322.66;6375867;22;39495;-80
2022/11/26 15:52:12;;;;;;;7.60;5.90;;;;;;;9.26;79.47;100275.91;6401284;22;41907;-80
2022/11/26 15:54:48;;;;;;;7.93;5.70;;;;;;;9.46;79.52;100305.16;6405693;22;43327;-82
2022/11/26 15:57:23;;;;;;;13.20;7.90;;;;;;;9.54;79.93;100315.47;6377607;22;42904;-83
2022/11/26 15:59:55;;;;;;;10.27;7.47;;;;;;;9.52;80.09;100320.81;6403970;22;40153;-82
2022/11/26 16:02:27;;;;;;;11.17;6.70;;;;;;;9.39;80.18;100297.50;6406235;22;42800;-79
2022/11/26 16:04:57;;;;;;;11.90;7.40;;;;;;;9.43;80.15;100317.63;6405793;22;43286;-81
2022/11/26 16:07:27;;;;;;;8.97;5.83;;;;;;;9.32;80.41;100303.00;6377367;22;42267;-79
2022/11/26 16:10:20;;;;;;;12.53;7.57;;;;;;;9.33;80.35;100315.31;6377471;22;39978;-80
2022/11/26 16:13:21;;;;;;;8.13;6.97;;;;;;;9.29;80.46;100331.31;6378109;22;41689;-82
2022/11/26 16:15:54;;;;;;;9.03;6.43;;;;;;;9.22;80.54;100327.16;6378181;22;42998;-81
2022/11/26 16:18:34;;;;;;;11.17;7.20;;;;;;;8.84;80.79;100268.50;6378617;22;42987;-80
2022/11/26 16:21:08;;;;;;;9.17;6.63;;;;;;;8.93;80.92;100291.97;6378442;22;40377;-80
2022/11/26 16:23:36;;;;;;;12.40;7.27;;;;;;;9.02;81.10;100308.47;6377271;22;41839;-82
2022/11/26 16:26:15;;;;;;;11.53;7.73;;;;;;;9.02;81.26;100308.47;6350670;22;42769;-79
2022/11/26 16:28:43;;;;;;;10.00;7.37;;;;;;;8.99;81.09;100310.28;6407108;22;43285;-81
2022/11/26 16:31:11;;;;;;;10.60;7.77;;;;;;;9.12;81.17;100323.09;6406655;22;40339;-82
2022/11/26 16:33:40;;;;;;;10.70;7.20;;;;;;;9.13;81.02;100328.34;6406637;22;42767;-79
2022/11/26 16:36:18;;;;;;;9.93;7.40;;;;;;;9.04;80.97;100311.91;6406334;22;43595;-79
2022/11/26 16:38:46;;;;;;;13.63;8.37;;;;;;;9.12;81.01;100331.03;6378585;22;41511;-82
2022/11/26 16:41:16;;;;;;;14.20;8.60;;;;;;;9.08;80.85;100321.47;6406957;22;40176;-80
2022/11/26 16:43:43;;;;;;;10.10;7.53;;;;;;;9.01;80.88;100323.47;6378996;22;42341;-80
2022/11/26 16:46:14;;;;;;;9.80;7.60;;;;;;;8.97;81.40;100317.41;6379499;22;42957;-82
2022/11/26 16:48:44;;;;;;;11.07;7.83;;;;;;;8.89;81.51;100324.72;6379192;22;43187;-81
2022/11/26 16:51:12;;;;;;;12.90;8.67;;;;;;;8.82;81.68;100317.03;6407358;22;39863;-80
2022/11/26 16:53:40;;;;;;;11.97;8.50;;;;;;;8.63;81.81;100295.63;6378792;22;42133;-79
2022/11/26 16:56:18;;;;;;;13.07;9.53;;;;;;;8.65;82.23;100320.22;6407055;22;43023;-79
2022/11/26 16:58:45;;;;;;;13.37;8.50;;;;;;;8.60;82.23;100327.41;6378723;22;42317;-79
2022/11/26 17:01:13;;;;;;;11.23;7.80;;;;;;;8.51;82.17;100322.41;6406999;22;40039;-79
2022/11/26 17:03:41;;;;;;;11.90;8.60;;;;;;;8.55;82.62;100334.59;6406650;22;42524;-82
2022/11/26 17:06:14;;;;;;;11.30;8.00;;;;;;;8.52;82.48;100327.66;6351563;22;41700;-82
2022/11/26 17:08:42;;;;;;;11.83;8.10;;;;;;;8.52;82.62;100339.97;6406652;22;42316;-79
2022/11/26 17:11:13;;;;;;;11.60;8.20;;;;;;;8.38;82.39;100315.78;6378947;22;39891;-81
2022/11/26 17:13:40;;;;;;;13.70;8.20;;;;;;;8.51;82.47;100338.25;6406997;22;41671;-81
2022/11/26 17:16:13;;;;;;;13.10;8.10;;;;;;;8.41;82.56;100320.94;6378608;22;43035;-80
2022/11/26 17:18:41;;;;;;;15.47;8.10;;;;;;;8.46;82.40;100338.38;6351952;22;41190;-82
2022/11/26 17:21:09;;;;;;;9.47;7.80;;;;;;;8.52;82.32;100345.25;6378601;22;40204;-82
2022/11/26 17:23:38;;;;;;;9.17;7.33;;;;;;;8.50;82.18;100344.44;6350981;22;41934;-82
2022/11/26 17:26:16;;;;;;;10.87;8.20;;;;;;;8.37;82.39;100336.03;6406543;22;43915;-81
2022/11/26 17:28:44;;;;;;;10.17;7.27;;;;;;;8.31;82.42;100330.88;6378277;22;43228;-80
2022/11/26 17:31:12;;;;;;;12.30;7.57;;;;;;;8.22;82.36;100326.75;6350913;22;38852;-83
2022/11/26 17:33:40;;;;;;;9.83;7.33;;;;;;;8.28;82.39;100342.38;6377625;22;41908;-81
